Time;durP1;ratioP1;P1;durP2;ratioP2;P2;SDS_P1;SDS_P2;PMS_P1;PMS_P2;Temp;Humidity;BMP_temperature;BMP_pressure;BME280_temperature;BME280_humidity;BME280_pressure;Samples;Min_cycle;Max_cycle;Signal;HPM_P1;HPM_P2
2023/04/10 03:01:30;;;;;;;2.03;1.52;;;16.30;51.50;;;;;;5544326;22;45943;-65
2023/04/10 03:03:56;;;;;;;2.13;1.60;;;16.30;51.50;;;;;;4931443;28;45697;-65
2023/04/10 03:06:25;;;;;;;1.63;1.52;;;16.30;51.50;;;;;;4969247;28;45453;-65
2023/04/10 03:08:51;;;;;;;2.08;1.65;;;16.20;51.50;;;;;;4943585;28;45715;-66
2023/04/10 03:11:17;;;;;;;1.90;1.67;;;16.20;51.50;;;;;;4953428;28;45552;-65
2023/04/10 03:13:42;;;;;;;1.98;1.58;;;16.20;51.50;;;;;;4952389;28;47184;-65
2023/04/10 03:16:08;;;;;;;1.85;1.65;;;16.20;51.50;;;;;;4921331;28;45424;-68
2023/04/10 03:18:34;;;;;;;1.70;1.60;;;16.20;51.50;;;;;;4919478;28;45215;-64
2023/04/10 03:21:00;;;;;;;2.05;1.73;;;16.20;51.50;;;;;;4960633;28;45279;-65
2023/04/10 03:23:26;;;;;;;1.80;1.65;;;16.20;51.50;;;;;;4967194;28;45177;-64
2023/04/10 03:25:53;;;;;;;2.17;1.95;;;16.20;51.50;;;;;;4941742;28;45542;-65
2023/04/10 03:28:21;;;;;;;1.80;1.70;;;16.20;51.50;;;;;;4929715;28;45347;-64
2023/04/10 03:30:48;;;;;;;1.83;1.67;;;16.20;51.50;;;;;;4954661;28;44952;-66
2023/04/10 03:33:14;;;;;;;2.38;1.88;;;16.20;51.50;;;;;;4930929;28;45956;-66
2023/04/10 03:35:40;;;;;;;1.50;1.40;;;16.20;51.50;;;;;;4950078;28;46223;-64
2023/04/10 03:38:05;;;;;;;1.60;1.50;;;16.20;51.50;;;;;;4954230;28;45444;-66
2023/04/10 03:40:33;;;;;;;1.95;1.77;;;16.20;51.50;;;;;;4911216;28;45640;-64
2023/04/10 03:42:59;;;;;;;1.95;1.80;;;16.20;51.50;;;;;;4973129;28;46490;-64
2023/04/10 03:45:24;;;;;;;2.42;1.70;;;16.20;51.60;;;;;;4921008;28;47410;-66
2023/04/10 03:47:51;;;;;;;2.30;1.90;;;16.20;51.60;;;;;;4956735;28;45373;-65
2023/04/10 03:50:16;;;;;;;2.30;1.95;;;16.20;51.60;;;;;;4909762;28;45345;-66
2023/04/10 03:52:42;;;;;;;3.08;2.00;;;16.20;51.60;;;;;;4936670;28;45207;-65
2023/04/10 03:55:08;;;;;;;2.00;1.65;;;16.20;51.50;;;;;;4937803;28;45476;-66
2023/04/10 03:57:33;;;;;;;1.52;1.42;;;16.20;51.60;;;;;;4927763;28;45626;-65
2023/04/10 03:59:59;;;;;;;2.15;1.50;;;16.20;51.60;;;;;;4933339;28;44886;-66
2023/04/10 04:02:24;;;;;;;2.10;1.77;;;16.20;51.50;;;;;;4926953;28;46180;-66
2023/04/10 04:04:50;;;;;;;2.35;1.88;;;16.20;51.50;;;;;;4916042;28;44994;-65
2023/04/10 04:07:15;;;;;;;1.77;1.67;;;16.20;51.60;;;;;;4923652;28;46219;-65
2023/04/10 04:09:41;;;;;;;2.30;1.80;;;16.20;51.60;;;;;;4941736;28;45469;-64
2023/04/10 04:12:07;;;;;;;1.80;1.65;;;16.20;51.60;;;;;;4918152;28;45800;-65
2023/04/10 04:14:32;;;;;;;1.92;1.55;;;16.20;51.60;;;;;;4945293;28;45475;-64
2023/04/10 04:16:58;;;;;;;1.92;1.63;;;16.10;51.60;;;;;;4946531;28;45988;-66
2023/04/10 04:19:24;;;;;;;1.83;1.60;;;16.20;51.60;;;;;;4934639;28;45416;-66
2023/04/10 04:21:49;;;;;;;1.98;1.77;;;16.20;51.60;;;;;;4924132;28;45717;-65
2023/04/10 04:24:15;;;;;;;2.03;1.83;;;16.10;51.60;;;;;;4942943;28;45245;-65
2023/04/10 04:26:41;;;;;;;1.85;1.55;;;16.10;51.60;;;;;;4937176;28;45473;-65
2023/04/10 04:29:06;;;;;;;1.70;1.60;;;16.10;51.50;;;;;;4944939;28;45647;-65
2023/04/10 04:31:32;;;;;;;1.70;1.60;;;16.10;51.50;;;;;;4915967;28;46884;-65
2023/04/10 04:33:58;;;;;;;1.92;1.63;;;16.10;51.60;;;;;;4930567;28;45980;-65
2023/04/10 04:36:24;;;;;;;1.90;1.60;;;16.10;51.60;;;;;;4901804;28;45709;-65
2023/04/10 04:38:50;;;;;;;2.13;1.92;;;16.10;51.60;;;;;;4917411;28;46286;-68
2023/04/10 04:41:15;;;;;;;1.85;1.67;;;16.10;51.60;;;;;;4954712;28;45330;-66
2023/04/10 04:43:41;;;;;;;2.03;1.60;;;16.10;51.60;;;;;;4922493;28;45186;-65
2023/04/10 04:46:06;;;;;;;2.17;1.70;;;16.10;51.60;;;;;;4912598;28;44959;-67
2023/04/10 04:48:33;;;;;;;1.92;1.55;;;16.10;51.60;;;;;;4937988;28;45106;-65
2023/04/10 04:50:59;;;;;;;1.83;1.65;;;16.10;51.60;;;;;;4938944;28;46370;-65
2023/04/10 04:53:24;;;;;;;1.98;1.63;;;16.10;51.60;;;;;;4932267;28;45700;-65
2023/04/10 04:55:50;;;;;;;1.58;1.48;;;16.10;51.60;;;;;;4925234;28;46000;-66
2023/04/10 04:58:15;;;;;;;1.92;1.73;;;16.10;51.60;;;;;;4930868;28;45363;-64
2023/04/10 05:00:41;;;;;;;1.70;1.48;;;16.10;51.60;;;;;;4927121;28;45167;-65
2023/04/10 05:03:06;;;;;;;1.60;1.50;;;16.10;51.60;;;;;;4947924;28;45155;-66
2023/04/10 05:05:32;;;;;;;2.58;1.90;;;16.10;51.60;;;;;;4921257;28;45368;-65
2023/04/10 05:07:58;;;;;;;2.05;1.85;;;16.10;51.60;;;;;;4916969;28;45467;-65
2023/04/10 05:10:23;;;;;;;1.73;1.50;;;16.10;51.60;;;;;;4935114;28;46598;-68
2023/04/10 05:12:49;;;;;;;2.05;1.80;;;16.10;51.70;;;;;;4958969;28;45349;-65
2023/04/10 05:15:14;;;;;;;1.70;1.60;;;16.10;51.70;;;;;;4915770;28;45792;-65
2023/04/10 05:17:40;;;;;;;1.80;1.65;;;16.10;51.70;;;;;;4949808;28;45164;-67
2023/04/10 05:20:06;;;;;;;1.95;1.73;;;16.10;51.60;;;;;;4950340;28;45996;-66
2023/04/10 05:22:32;;;;;;;1.92;1.73;;;16.10;51.60;;;;;;4938359;28;45891;-65
2023/04/10 05:24:58;;;;;;;2.05;1.83;;;16.10;51.60;;;;;;4928185;28;45573;-65
2023/04/10 05:27:24;;;;;;;2.33;1.92;;;16.10;51.60;;;;;;4921134;28;45679;-67
2023/04/10 05:29:49;;;;;;;2.35;2.15;;;16.10;51.50;;;;;;4939658;28;45958;-65
2023/04/10 05:32:15;;;;;;;2.15;1.67;;;16.10;51.40;;;;;;4940350;28;45511;-65
2023/04/10 05:34:40;;;;;;;2.03;1.75;;;16.10;51.30;;;;;;4963902;28;45398;-66
2023/04/10 05:37:07;;;;;;;2.20;1.85;;;16.10;51.30;;;;;;4907394;28;45600;-66
2023/04/10 05:39:32;;;;;;;1.92;1.70;;;16.20;51.30;;;;;;4925200;28;46007;-65
2023/04/10 05:41:58;;;;;;;2.42;2.05;;;16.20;51.30;;;;;;4918563;28;45240;-66
2023/04/10 05:44:23;;;;;;;2.40;2.20;;;16.20;51.20;;;;;;4939316;28;45722;-66
2023/04/10 05:46:49;;;;;;;2.45;2.25;;;16.20;51.20;;;;;;4920709;28;45339;-65
2023/04/10 05:49:15;;;;;;;3.80;3.47;;;16.30;51.20;;;;;;4933610;28;54553;-65
2023/04/10 05:51:41;;;;;;;3.38;3.08;;;16.30;51.10;;;;;;4919101;28;45842;-65
2023/04/10 05:54:07;;;;;;;3.33;3.08;;;16.30;51.00;;;;;;4923396;28;44744;-64
2023/04/10 05:56:32;;;;;;;2.95;2.75;;;16.60;50.30;;;;;;4925156;28;46228;-65
2023/04/10 05:58:58;;;;;;;3.00;2.80;;;16.80;49.70;;;;;;4938609;28;46583;-65
2023/04/10 06:01:23;;;;;;;2.22;2.03;;;17.10;49.30;;;;;;4931004;28;45469;-66
2023/04/10 06:03:49;;;;;;;2.30;2.10;;;17.30;48.60;;;;;;4947023;28;45370;-64
2023/04/10 06:06:14;;;;;;;1.92;1.73;;;17.50;48.30;;;;;;4940530;28;45086;-65
2023/04/10 06:08:40;;;;;;;2.22;2.03;;;17.50;48.30;;;;;;4929929;28;46039;-64
2023/04/10 06:11:05;;;;;;;2.00;1.80;;;17.50;48.20;;;;;;4958923;28;45351;-64
2023/04/10 06:13:32;;;;;;;1.80;1.70;;;17.50;48.30;;;;;;4950102;28;44814;-64
2023/04/10 06:15:57;;;;;;;2.05;1.67;;;17.40;48.70;;;;;;4952220;28;45420;-66
2023/04/10 06:18:23;;;;;;;2.47;1.73;;;17.20;48.90;;;;;;4942333;28;45594;-64
2023/04/10 06:20:49;;;;;;;2.05;1.85;;;17.00;49.30;;;;;;4922902;28;45622;-64
2023/04/10 06:23:14;;;;;;;2.25;2.05;;;16.90;49.80;;;;;;4945668;28;45241;-64
2023/04/10 06:25:40;;;;;;;2.08;1.88;;;16.70;49.90;;;;;;4920585;28;44848;-64
2023/04/10 06:28:06;;;;;;;2.22;1.85;;;16.70;50.10;;;;;;4934905;28;46671;-64
2023/04/10 06:30:33;;;;;;;2.20;1.77;;;16.60;50.10;;;;;;4918017;28;45933;-65
2023/04/10 06:32:59;;;;;;;1.88;1.73;;;16.60;50.20;;;;;;4914947;28;45145;-64
2023/04/10 06:35:24;;;;;;;2.00;1.80;;;16.60;50.30;;;;;;4934496;28;45002;-65
2023/04/10 06:37:50;;;;;;;2.22;1.98;;;16.60;50.40;;;;;;4962283;28;45472;-64
2023/04/10 06:40:16;;;;;;;2.20;1.90;;;16.50;50.40;;;;;;4918078;28;45620;-64
2023/04/10 06:42:41;;;;;;;1.73;1.60;;;16.50;50.50;;;;;;4941155;28;45546;-64
2023/04/10 06:45:07;;;;;;;1.95;1.77;;;16.50;50.60;;;;;;4955061;28;45282;-67
2023/04/10 06:47:33;;;;;;;1.92;1.73;;;16.50;50.70;;;;;;4924944;28;45434;-65
2023/04/10 06:49:58;;;;;;;1.73;1.52;;;16.50;50.70;;;;;;4936863;28;46043;-65
2023/04/10 06:52:24;;;;;;;1.98;1.73;;;16.50;50.70;;;;;;4941522;28;44846;-64
2023/04/10 06:54:50;;;;;;;2.00;1.52;;;16.50;50.70;;;;;;4943320;28;45246;-65
2023/04/10 06:57:15;;;;;;;1.85;1.70;;;16.50;50.70;;;;;;4925939;28;47021;-65
2023/04/10 06:59:41;;;;;;;1.85;1.67;;;16.50;50.60;;;;;;4922664;28;45452;-65
2023/04/10 07:02:07;;;;;;;1.98;1.60;;;16.50;50.60;;;;;;4913926;28;46688;-65
2023/04/10 07:04:32;;;;;;;1.85;1.55;;;16.60;50.50;;;;;;4930242;28;46173;-64
2023/04/10 07:06:58;;;;;;;1.98;1.75;;;16.60;50.50;;;;;;4937225;28;46064;-64
2023/04/10 07:09:25;;;;;;;1.65;1.50;;;16.60;50.50;;;;;;4929178;28;45288;-66
2023/04/10 07:11:51;;;;;;;2.00;1.80;;;16.60;50.50;;;;;;4935593;28;45372;-64
2023/04/10 07:14:17;;;;;;;1.75;1.50;;;16.60;50.50;;;;;;4927660;28;45310;-66
2023/04/10 07:16:42;;;;;;;1.90;1.70;;;16.60;50.50;;;;;;4938435;28;45257;-65
2023/04/10 07:19:08;;;;;;;2.45;1.83;;;16.60;50.50;;;;;;4933213;28;45313;-65
2023/04/10 07:21:33;;;;;;;2.40;2.20;;;16.60;50.50;;;;;;4940731;28;45488;-64
2023/04/10 07:23:59;;;;;;;2.03;1.83;;;16.60;50.50;;;;;;4940752;28;45544;-64
2023/04/10 07:26:24;;;;;;;2.60;1.88;;;16.60;50.50;;;;;;4941301;28;46455;-67
2023/04/10 07:28:50;;;;;;;2.05;1.60;;;16.60;50.50;;;;;;4959064;28;45303;-64
2023/04/10 07:31:17;;;;;;;1.98;1.83;;;16.60;50.50;;;;;;4904081;28;45034;-65
2023/04/10 07:33:44;;;;;;;1.88;1.60;;;16.60;50.40;;;;;;4931240;28;45542;-65
2023/04/10 07:36:09;;;;;;;2.30;1.90;;;16.60;50.40;;;;;;4942411;28;47169;-65
2023/04/10 07:38:35;;;;;;;2.03;1.83;;;16.60;50.40;;;;;;4930537;28;45386;-65
2023/04/10 07:41:01;;;;;;;2.05;1.85;;;16.70;50.40;;;;;;4916376;28;45262;-65
2023/04/10 07:43:26;;;;;;;2.35;1.70;;;16.70;50.40;;;;;;4951773;28;45780;-65
2023/04/10 07:45:52;;;;;;;2.55;1.65;;;16.70;50.40;;;;;;4931010;28;46878;-65
2023/04/10 07:48:17;;;;;;;1.65;1.55;;;16.70;50.30;;;;;;4909792;28;45536;-65
2023/04/10 07:50:43;;;;;;;2.40;1.77;;;16.70;50.30;;;;;;4920677;28;45239;-65
2023/04/10 07:53:08;;;;;;;2.00;1.75;;;16.70;50.30;;;;;;4938884;28;45454;-65
2023/04/10 07:55:38;;;;;;;2.05;1.85;;;16.70;50.30;;;;;;4921940;28;46438;-64
2023/04/10 07:58:04;;;;;;;1.92;1.70;;;16.70;50.20;;;;;;4943124;28;45038;-65
2023/04/10 08:00:30;;;;;;;1.98;1.73;;;16.80;50.20;;;;;;4916329;28;45280;-65
2023/04/10 08:02:55;;;;;;;2.28;1.65;;;16.80;50.20;;;;;;4944839;28;45474;-66
2023/04/10 08:05:21;;;;;;;2.20;1.70;;;16.80;50.20;;;;;;4940161;28;46657;-64
2023/04/10 08:07:46;;;;;;;2.13;1.75;;;16.80;50.20;;;;;;4963720;28;45104;-67
2023/04/10 08:10:12;;;;;;;2.45;1.85;;;16.80;50.10;;;;;;4944907;28;45493;-68
2023/04/10 08:12:38;;;;;;;1.92;1.67;;;16.80;50.20;;;;;;4905460;28;45571;-68
2023/04/10 08:15:04;;;;;;;2.40;1.80;;;16.80;50.10;;;;;;4938212;28;45344;-68
2023/04/10 08:17:30;;;;;;;2.00;1.85;;;16.80;50.10;;;;;;4940129;28;45366;-65
2023/04/10 08:19:55;;;;;;;1.88;1.65;;;16.90;50.10;;;;;;4928700;28;47965;-65
2023/04/10 08:22:21;;;;;;;1.67;1.58;;;16.90;50.10;;;;;;4925829;28;44882;-64
2023/04/10 08:24:46;;;;;;;1.98;1.77;;;16.90;50.10;;;;;;4939761;28;46277;-66
2023/04/10 08:27:12;;;;;;;2.58;1.98;;;16.90;50.10;;;;;;4949670;28;45600;-68
2023/04/10 08:29:38;;;;;;;2.10;1.50;;;16.90;50.10;;;;;;4917941;28;45450;-65
2023/04/10 08:32:04;;;;;;;2.55;2.05;;;16.90;50.10;;;;;;4920302;28;45796;-66
2023/04/10 08:34:29;;;;;;;1.85;1.70;;;16.90;50.00;;;;;;4925444;28;45271;-65
2023/04/10 08:36:56;;;;;;;1.98;1.77;;;16.90;50.00;;;;;;4938055;28;45542;-65
2023/04/10 08:39:21;;;;;;;2.10;1.63;;;17.00;50.00;;;;;;4962567;28;45223;-65
2023/04/10 08:41:47;;;;;;;1.88;1.60;;;17.00;50.00;;;;;;4923413;28;45259;-65
2023/04/10 08:44:12;;;;;;;2.03;1.83;;;17.00;50.00;;;;;;4928289;28;45961;-64
2023/04/10 08:46:42;;;;;;;2.00;1.80;;;17.00;50.00;;;;;;4902744;28;45849;-65
2023/04/10 08:49:10;;;;;;;1.90;1.67;;;17.00;50.00;;;;;;4901986;28;45401;-65
2023/04/10 08:51:42;;;;;;;1.95;1.75;;;17.00;50.00;;;;;;4910001;28;45143;-65
2023/04/10 08:54:13;;;;;;;2.22;1.98;;;17.00;50.00;;;;;;4914908;28;45509;-66
2023/04/10 08:56:39;;;;;;;1.77;1.65;;;17.00;50.00;;;;;;4942158;28;46586;-65
2023/04/10 08:59:04;;;;;;;1.70;1.48;;;17.00;50.00;;;;;;4943472;28;45304;-65
2023/04/10 09:01:30;;;;;;;2.08;1.85;;;17.10;50.00;;;;;;4913428;28;46041;-66
2023/04/10 09:03:56;;;;;;;2.30;2.10;;;17.10;50.00;;;;;;4932657;28;45539;-66
2023/04/10 09:06:22;;;;;;;2.13;1.90;;;17.10;50.00;;;;;;4922055;28;45461;-65
2023/04/10 09:08:47;;;;;;;2.00;1.80;;;17.10;50.00;;;;;;4960718;28;45265;-67
2023/04/10 09:11:13;;;;;;;1.58;1.48;;;17.10;50.00;;;;;;4941551;28;45343;-65
2023/04/10 09:13:42;;;;;;;2.20;1.73;;;17.10;50.00;;;;;;4947277;28;45515;-64
2023/04/10 09:16:08;;;;;;;2.55;2.03;;;17.10;49.90;;;;;;4939057;28;45127;-64
2023/04/10 09:18:50;;;;;;;2.00;1.80;;;17.20;49.90;;;;;;4947491;28;45378;-65
2023/04/10 09:21:17;;;;;;;2.15;1.80;;;17.20;49.90;;;;;;4941641;28;45111;-65
2023/04/10 09:23:43;;;;;;;1.95;1.75;;;17.20;49.90;;;;;;4946351;28;46667;-64
2023/04/10 09:26:23;;;;;;;1.92;1.73;;;17.20;49.90;;;;;;4925199;28;45209;-65
2023/04/10 09:29:05;;;;;;;1.70;1.60;;;17.20;49.80;;;;;;4945200;28;44752;-67
2023/04/10 09:31:35;;;;;;;3.35;1.60;;;17.20;49.90;;;;;;4917696;28;45343;-68
2023/04/10 09:34:21;;;;;;;1.85;1.70;;;17.20;49.90;;;;;;4938203;28;45440;-66
2023/04/10 09:36:56;;;;;;;2.17;1.92;;;17.20;49.80;;;;;;4939358;28;45360;-64
2023/04/10 09:39:33;;;;;;;1.98;1.63;;;17.20;50.40;;;;;;4912616;28;50266;-65
2023/04/10 09:41:58;;;;;;;2.10;1.88;;;17.20;49.80;;;;;;4932048;28;45226;-64
2023/04/10 09:44:36;;;;;;;2.08;1.80;;;17.20;50.40;;;;;;4934231;28;45620;-64
2023/04/10 09:47:17;;;;;;;1.90;1.70;;;17.30;49.90;;;;;;4920695;28;45309;-65
2023/04/10 09:49:49;;;;;;;2.17;1.70;;;17.30;49.80;;;;;;4948048;28;45560;-63
2023/04/10 09:52:18;;;;;;;1.70;1.60;;;17.30;49.80;;;;;;4939196;28;45104;-66
2023/04/10 09:54:44;;;;;;;1.83;1.55;;;17.30;49.80;;;;;;4944629;28;46422;-67
2023/04/10 09:57:12;;;;;;;1.80;1.60;;;17.30;49.80;;;;;;4936547;28;46659;-67
2023/04/10 09:59:38;;;;;;;2.45;2.00;;;17.30;49.90;;;;;;4926181;28;45125;-67
2023/04/10 10:02:04;;;;;;;2.42;1.80;;;17.30;49.80;;;;;;4920841;28;45713;-66
2023/04/10 10:04:29;;;;;;;1.90;1.75;;;17.30;49.80;;;;;;4931116;28;46977;-66
2023/04/10 10:06:55;;;;;;;2.00;1.80;;;17.40;49.80;;;;;;4944382;28;45385;-66
2023/04/10 10:09:20;;;;;;;1.60;1.50;;;17.40;49.80;;;;;;4937484;28;44950;-68
2023/04/10 10:11:46;;;;;;;1.90;1.73;;;17.40;49.80;;;;;;4943935;28;45233;-67
2023/04/10 10:14:14;;;;;;;2.33;1.67;;;17.40;49.80;;;;;;4917479;28;47104;-67
2023/04/10 10:17:00;;;;;;;1.75;1.60;;;17.40;49.70;;;;;;4923734;28;45205;-68
2023/04/10 10:19:41;;;;;;;1.95;1.73;;;17.40;49.70;;;;;;4947512;28;44993;-67
2023/04/10 10:22:08;;;;;;;1.95;1.75;;;17.40;49.60;;;;;;4909746;28;45356;-66
2023/04/10 10:24:34;;;;;;;2.50;2.03;;;17.40;49.70;;;;;;4942665;28;45323;-69
2023/04/10 10:27:01;;;;;;;1.98;1.77;;;17.50;49.70;;;;;;4913719;28;45282;-66
2023/04/10 10:29:26;;;;;;;2.78;2.10;;;17.40;49.60;;;;;;4913402;28;45320;-66
2023/04/10 10:31:52;;;;;;;2.05;1.85;;;17.50;49.70;;;;;;4918398;28;45941;-69
2023/04/10 10:34:17;;;;;;;1.52;1.42;;;17.50;50.30;;;;;;4954835;28;45641;-68
2023/04/10 10:36:43;;;;;;;2.70;2.10;;;17.50;49.70;;;;;;4930589;28;45410;-66
2023/04/10 10:39:24;;;;;;;2.10;1.83;;;17.50;49.60;;;;;;4964253;28;46316;-66
2023/04/10 10:42:23;;;;;;;2.15;1.70;;;17.50;49.60;;;;;;4943795;28;45497;-67
2023/04/10 10:45:08;;;;;;;2.17;1.98;;;17.50;49.60;;;;;;4956219;28;45621;-66
2023/04/10 10:47:37;;;;;;;1.98;1.77;;;17.60;49.60;;;;;;4953781;28;45256;-65
2023/04/10 10:50:03;;;;;;;1.77;1.67;;;17.60;49.60;;;;;;4929811;28;45222;-69
2023/04/10 10:52:39;;;;;;;1.60;1.50;;;17.50;49.60;;;;;;4916101;28;45271;-67
2023/04/10 10:55:35;;;;;;;2.10;1.90;;;17.60;49.70;;;;;;4927381;28;45814;-70
2023/04/10 10:58:03;;;;;;;1.75;1.63;;;17.60;49.60;;;;;;4968096;28;45340;-67
2023/04/10 11:00:51;;;;;;;1.85;1.70;;;17.60;49.60;;;;;;4925466;28;45234;-66
2023/04/10 11:03:17;;;;;;;1.60;1.50;;;17.60;49.60;;;;;;4967150;28;45884;-68
2023/04/10 11:06:01;;;;;;;1.70;1.60;;;17.60;49.70;;;;;;4960846;28;45466;-67
2023/04/10 11:08:46;;;;;;;1.63;1.50;;;17.60;49.60;;;;;;4954746;28;46219;-66
2023/04/10 11:11:19;;;;;;;2.20;1.88;;;17.60;49.60;;;;;;4940904;28;45408;-67
2023/04/10 11:13:56;;;;;;;2.28;1.90;;;17.60;49.60;;;;;;4930965;28;45292;-67
2023/04/10 11:16:23;;;;;;;2.00;1.60;;;17.60;49.60;;;;;;4959326;28;45351;-68
2023/04/10 11:18:49;;;;;;;1.77;1.60;;;17.60;49.60;;;;;;4958059;28;44873;-66
2023/04/10 11:21:18;;;;;;;2.10;1.90;;;17.60;49.60;;;;;;4963340;28;45457;-66
2023/04/10 11:23:52;;;;;;;1.80;1.70;;;17.70;49.70;;;;;;4971171;28;45356;-65
2023/04/10 11:26:42;;;;;;;1.98;1.73;;;17.70;49.70;;;;;;4946333;28;47414;-65
2023/04/10 11:29:17;;;;;;;2.20;1.85;;;17.70;49.60;;;;;;4974195;28;45847;-67
2023/04/10 11:32:03;;;;;;;1.60;1.50;;;17.70;49.60;;;;;;4963131;28;45659;-66
2023/04/10 11:34:32;;;;;;;1.83;1.52;;;17.70;49.60;;;;;;4960290;28;45638;-67
2023/04/10 11:36:59;;;;;;;1.50;1.40;;;17.70;49.60;;;;;;4949771;28;46554;-66
2023/04/10 11:39:26;;;;;;;2.00;1.70;;;17.70;49.60;;;;;;4921450;28;45055;-68
2023/04/10 11:41:52;;;;;;;1.73;1.45;;;17.70;49.60;;;;;;4941706;28;45390;-66
2023/04/10 11:44:24;;;;;;;1.92;1.52;;;17.70;49.70;;;;;;4945345;28;45111;-67
2023/04/10 11:46:50;;;;;;;1.73;1.63;;;17.70;49.60;;;;;;4945157;28;45424;-68
2023/04/10 11:49:21;;;;;;;1.48;1.38;;;17.70;49.70;;;;;;4936593;28;45564;-67
2023/04/10 11:51:47;;;;;;;1.52;1.42;;;17.70;49.70;;;;;;4950062;28;45448;-67
2023/04/10 11:54:16;;;;;;;2.47;1.80;;;17.70;49.70;;;;;;4950620;28;45284;-66
2023/04/10 11:56:43;;;;;;;2.03;1.73;;;17.80;49.70;;;;;;4944327;28;46586;-66
2023/04/10 11:59:18;;;;;;;1.50;1.40;;;17.80;49.70;;;;;;4962284;28;44941;-66
2023/04/10 12:01:44;;;;;;;1.58;1.48;;;17.80;49.70;;;;;;4927496;28;45376;-67
2023/04/10 12:04:16;;;;;;;1.95;1.70;;;17.70;49.70;;;;;;4927581;28;45344;-67
2023/04/10 12:06:52;;;;;;;2.17;1.65;;;17.80;49.70;;;;;;4935304;28;48588;-67
2023/04/10 12:09:19;;;;;;;1.58;1.38;;;17.80;49.60;;;;;;4940385;28;44949;-68
2023/04/10 12:12:04;;;;;;;1.50;1.40;;;17.80;49.70;;;;;;4956256;28;45626;-66
2023/04/10 12:14:33;;;;;;;1.42;1.33;;;17.80;49.60;;;;;;4945337;28;45209;-66
2023/04/10 12:16:59;;;;;;;1.70;1.42;;;17.80;49.70;;;;;;4941176;28;46407;-67
2023/04/10 12:19:25;;;;;;;2.10;1.77;;;17.80;49.70;;;;;;4965330;28;45400;-69
2023/04/10 12:21:51;;;;;;;1.92;1.65;;;17.80;49.70;;;;;;4952968;28;45493;-67
2023/04/10 12:24:45;;;;;;;1.48;1.38;;;17.80;49.70;;;;;;4976116;28;45616;-68
2023/04/10 12:27:46;;;;;;;1.50;1.40;;;17.80;49.70;;;;;;4968474;28;46402;-68
2023/04/10 12:30:12;;;;;;;1.67;1.50;;;17.80;49.60;;;;;;4949395;28;45248;-67
2023/04/10 12:32:37;;;;;;;1.75;1.65;;;17.80;49.70;;;;;;4923614;28;46093;-67
2023/04/10 12:35:04;;;;;;;2.10;1.90;;;17.80;49.70;;;;;;4923568;28;45477;-70
2023/04/10 12:37:50;;;;;;;2.03;1.75;;;17.80;49.70;;;;;;4938105;28;45706;-67
2023/04/10 12:40:16;;;;;;;1.95;1.70;;;17.80;49.70;;;;;;4971700;28;45435;-66
2023/04/10 12:42:41;;;;;;;1.63;1.50;;;17.80;49.70;;;;;;4958572;28;45330;-67
2023/04/10 12:45:08;;;;;;;1.50;1.40;;;17.80;49.70;;;;;;4955590;28;45191;-67
2023/04/10 12:47:47;;;;;;;1.77;1.67;;;17.80;49.70;;;;;;4913659;28;47031;-66
2023/04/10 12:50:14;;;;;;;1.50;1.40;;;17.80;50.30;;;;;;4919094;28;45431;-67
2023/04/10 12:52:44;;;;;;;1.40;1.30;;;17.80;49.70;;;;;;4954015;28;45272;-67
2023/04/10 12:55:16;;;;;;;1.50;1.40;;;17.80;49.80;;;;;;4942680;28;45051;-66
2023/04/10 12:57:43;;;;;;;1.70;1.60;;;17.80;49.70;;;;;;4958920;28;46887;-68
2023/04/10 13:00:11;;;;;;;1.48;1.38;;;17.80;49.90;;;;;;4940364;28;46270;-70
2023/04/10 13:02:37;;;;;;;1.67;1.50;;;17.80;49.70;;;;;;4936798;28;45385;-67
2023/04/10 13:05:06;;;;;;;1.58;1.48;;;17.80;49.70;;;;;;4953655;28;45424;-70
2023/04/10 13:07:32;;;;;;;1.77;1.65;;;17.80;49.80;;;;;;4936198;28;46810;-67
2023/04/10 13:09:57;;;;;;;1.60;1.48;;;17.80;49.70;;;;;;4957915;28;45258;-67
2023/04/10 13:12:24;;;;;;;1.88;1.52;;;17.80;49.70;;;;;;4934095;28;45299;-66
2023/04/10 13:14:53;;;;;;;1.30;1.20;;;17.90;49.80;;;;;;4941518;28;44818;-66
2023/04/10 13:17:22;;;;;;;1.98;1.60;;;17.90;49.80;;;;;;4950682;28;45853;-67
2023/04/10 13:19:48;;;;;;;1.50;1.40;;;17.90;49.80;;;;;;4968256;28;45211;-67
2023/04/10 13:22:14;;;;;;;1.67;1.55;;;17.80;49.80;;;;;;4950680;28;45600;-67
2023/04/10 13:24:40;;;;;;;1.73;1.58;;;17.80;49.80;;;;;;4964520;28;45235;-67
2023/04/10 13:27:06;;;;;;;2.00;1.70;;;17.90;49.80;;;;;;4932356;28;47103;-69
2023/04/10 13:29:31;;;;;;;1.67;1.55;;;17.90;49.80;;;;;;4939859;28;45444;-67
2023/04/10 13:31:59;;;;;;;1.60;1.50;;;17.90;49.80;;;;;;4942020;28;46211;-68
2023/04/10 13:34:24;;;;;;;1.65;1.55;;;17.90;49.80;;;;;;4945455;28;44845;-67
2023/04/10 13:36:50;;;;;;;1.85;1.70;;;17.90;49.80;;;;;;4934213;28;45418;-67
2023/04/10 13:39:17;;;;;;;1.48;1.38;;;17.90;49.80;;;;;;4949408;28;45348;-67
2023/04/10 13:41:42;;;;;;;1.77;1.67;;;17.90;49.80;;;;;;4961698;28;45692;-66
2023/04/10 13:44:08;;;;;;;;;;;17.90;49.80;;;;;;4953935;28;45323;-62
2023/04/10 13:46:33;;;;;;;3.90;1.52;;;17.80;49.80;;;;;;4946312;28;46744;-62
2023/04/10 13:48:59;;;;;;;3.75;1.38;;;17.80;50.00;;;;;;4959517;28;45469;-61
2023/04/10 13:51:25;;;;;;;1.40;1.30;;;17.90;50.20;;;;;;4962149;28;44987;-61
2023/04/10 13:53:50;;;;;;;1.98;1.70;;;17.90;50.10;;;;;;4972690;28;46574;-62
2023/04/10 13:56:16;;;;;;;1.65;1.50;;;17.90;50.10;;;;;;4965573;28;46035;-62
2023/04/10 13:58:42;;;;;;;1.95;1.75;;;17.90;50.00;;;;;;4970525;28;45223;-62
2023/04/10 14:01:07;;;;;;;1.88;1.65;;;17.90;50.00;;;;;;4925445;28;45201;-61
2023/04/10 14:03:33;;;;;;;1.70;1.60;;;17.90;50.00;;;;;;4971975;28;45327;-61
2023/04/10 14:05:58;;;;;;;1.95;1.70;;;17.90;50.00;;;;;;4951349;28;45609;-61
2023/04/10 14:08:24;;;;;;;1.50;1.40;;;17.90;50.00;;;;;;4953447;28;46168;-61
2023/04/10 14:10:50;;;;;;;1.70;1.60;;;17.90;49.90;;;;;;4943279;28;45243;-60
2023/04/10 14:13:19;;;;;;;2.80;1.70;;;18.00;50.00;;;;;;4942886;28;44936;-61
2023/04/10 14:15:44;;;;;;;2.83;1.90;;;18.00;49.90;;;;;;4937667;28;48016;-61
2023/04/10 14:18:10;;;;;;;3.63;1.63;;;18.00;49.90;;;;;;4954227;28;45151;-61
2023/04/10 14:20:36;;;;;;;1.52;1.42;;;18.00;49.90;;;;;;4942485;28;45408;-61
2023/04/10 14:23:01;;;;;;;1.60;1.50;;;18.00;49.90;;;;;;4937934;28;45380;-61
2023/04/10 14:25:27;;;;;;;1.58;1.48;;;18.00;49.80;;;;;;4918091;28;46181;-62
2023/04/10 14:27:53;;;;;;;1.60;1.45;;;18.00;49.80;;;;;;4971345;28;45327;-61
2023/04/10 14:30:18;;;;;;;2.40;1.50;;;18.00;49.80;;;;;;4943733;28;45443;-60
2023/04/10 14:32:44;;;;;;;1.90;1.60;;;18.00;49.80;;;;;;4921188;28;45296;-61
2023/04/10 14:35:10;;;;;;;1.80;1.60;;;18.10;49.90;;;;;;4953305;28;46045;-61
2023/04/10 14:37:35;;;;;;;2.22;1.67;;;18.00;49.80;;;;;;4954463;28;46810;-61
2023/04/10 14:40:03;;;;;;;1.83;1.50;;;18.00;49.80;;;;;;4948310;28;45744;-61
2023/04/10 14:42:29;;;;;;;1.95;1.75;;;18.00;49.80;;;;;;4941649;28;45916;-61
2023/04/10 14:44:55;;;;;;;1.70;1.55;;;18.00;49.80;;;;;;4978096;28;45271;-61
2023/04/10 14:47:21;;;;;;;3.85;1.60;;;18.10;49.80;;;;;;4969759;28;45183;-61
2023/04/10 14:49:47;;;;;;;1.67;1.48;;;18.10;49.80;;;;;;4938904;28;44808;-61
2023/04/10 14:52:12;;;;;;;2.13;1.80;;;18.10;49.90;;;;;;4957033;28;46048;-61
2023/04/10 14:54:38;;;;;;;1.90;1.50;;;18.00;49.80;;;;;;4969090;28;45405;-61
2023/04/10 14:57:03;;;;;;;2.15;1.52;;;18.10;49.90;;;;;;4958330;28;45750;-61
2023/04/10 14:59:30;;;;;;;1.48;1.38;;;18.10;49.90;;;;;;4944049;28;45342;-61
2023/04/10 15:01:56;;;;;;;1.63;1.52;;;18.00;49.80;;;;;;4942308;28;45379;-61
2023/04/10 15:04:21;;;;;;;1.77;1.63;;;18.10;49.90;;;;;;4963341;28;46160;-61
2023/04/10 15:06:47;;;;;;;2.00;1.75;;;18.10;49.90;;;;;;4950653;28;45136;-61
2023/04/10 15:09:12;;;;;;;1.50;1.40;;;18.00;49.90;;;;;;4949453;28;44723;-62
2023/04/10 15:11:38;;;;;;;1.50;1.40;;;18.00;49.90;;;;;;4947969;28;45054;-61
2023/04/10 15:14:03;;;;;;;1.40;1.30;;;18.00;49.90;;;;;;4954051;28;45527;-61
2023/04/10 15:16:29;;;;;;;1.90;1.70;;;18.00;49.90;;;;;;4964625;28;45231;-61
2023/04/10 15:18:55;;;;;;;1.70;1.33;;;18.00;49.80;;;;;;4968013;28;45279;-61
2023/04/10 15:21:20;;;;;;;2.67;1.95;;;18.10;49.90;;;;;;4931823;28;45456;-61
2023/04/10 15:23:46;;;;;;;2.10;1.77;;;18.10;49.90;;;;;;4959909;28;45373;-61
2023/04/10 15:26:12;;;;;;;1.63;1.52;;;18.00;49.80;;;;;;4942033;28;44948;-61
2023/04/10 15:28:38;;;;;;;1.40;1.30;;;18.00;49.80;;;;;;4954620;28;45103;-61
2023/04/10 15:31:04;;;;;;;1.90;1.73;;;18.00;49.80;;;;;;4921146;28;45495;-61
2023/04/10 15:33:30;;;;;;;1.67;1.35;;;18.00;49.80;;;;;;4929615;28;46397;-61
2023/04/10 15:35:55;;;;;;;1.63;1.50;;;18.10;49.90;;;;;;4959021;28;44836;-62
2023/04/10 15:38:24;;;;;;;1.92;1.73;;;18.10;49.90;;;;;;4951395;28;45333;-63
2023/04/10 15:40:50;;;;;;;1.75;1.50;;;18.00;49.80;;;;;;4939365;28;46362;-63
2023/04/10 15:43:16;;;;;;;1.80;1.70;;;18.10;49.90;;;;;;4931595;28;45399;-61
2023/04/10 15:45:41;;;;;;;1.83;1.63;;;18.10;49.90;;;;;;4958480;28;45216;-61
2023/04/10 15:48:07;;;;;;;1.88;1.67;;;18.00;49.80;;;;;;4965873;28;45228;-61
2023/04/10 15:50:33;;;;;;;1.30;1.20;;;18.00;49.80;;;;;;4940080;28;45686;-61